Time;durP1;ratioP1;P1;durP2;ratioP2;P2;SDS_P1;SDS_P2;PMS_P1;PMS_P2;Temp;Humidity;BMP_temperature;BMP_pressure;BME280_temperature;BME280_humidity;BME280_pressure;Samples;Min_cycle;Max_cycle;Signal;HPM_P1;HPM_P2
2022/11/25 00:01:12;;;;;;;9.93;4.78;;;5.20;99.90;;;;;;5013218;28;20026;-68
2022/11/25 00:03:38;;;;;;;24.02;5.22;;;5.20;99.90;;;;;;5011974;28;20032;-68
2022/11/25 00:06:12;;;;;;;19.15;6.90;;;5.10;99.90;;;;;;5013284;28;20022;-68
2022/11/25 00:08:39;;;;;;;16.83;5.50;;;5.10;99.90;;;;;;5011872;28;20068;-68
2022/11/25 00:11:05;;;;;;;15.15;5.18;;;5.00;99.90;;;;;;5011889;28;20034;-68
2022/11/25 00:13:31;;;;;;;12.43;4.78;;;4.80;99.90;;;;;;5011825;28;20397;-68
2022/11/25 00:16:04;;;;;;;13.45;4.80;;;4.70;99.90;;;;;;5013117;28;20037;-68
2022/11/25 00:18:30;;;;;;;13.82;4.70;;;4.80;99.90;;;;;;5011761;28;20050;-68
2022/11/25 00:20:56;;;;;;;13.73;5.25;;;4.70;99.90;;;;;;5013040;28;20076;-68
2022/11/25 00:23:21;;;;;;;18.80;4.90;;;4.70;99.90;;;;;;5013072;28;20061;-67
2022/11/25 00:25:47;;;;;;;14.40;5.07;;;4.50;99.90;;;;;;5013014;28;20109;-68
2022/11/25 00:28:12;;;;;;;18.50;5.28;;;4.60;99.90;;;;;;5012069;28;20022;-68
2022/11/25 00:30:38;;;;;;;17.73;5.68;;;4.90;99.90;;;;;;5013094;28;20041;-68
2022/11/25 00:33:03;;;;;;;19.42;5.40;;;5.00;99.90;;;;;;5012847;28;20113;-68
2022/11/25 00:35:29;;;;;;;12.80;4.95;;;5.00;99.90;;;;;;5013200;28;20100;-68
2022/11/25 00:37:55;;;;;;;12.18;5.00;;;5.00;99.90;;;;;;5012952;28;20054;-68
2022/11/25 00:40:20;;;;;;;15.30;4.93;;;5.10;99.90;;;;;;5012681;28;20058;-68
2022/11/25 00:45:30;;;;;;;13.55;4.93;;;5.30;99.90;;;;;;5013710;28;20548;-68
2022/11/25 00:47:55;;;;;;;9.43;5.03;;;5.40;99.90;;;;;;5016468;28;20034;-68
2022/11/25 00:50:21;;;;;;;11.13;4.53;;;5.30;99.90;;;;;;5016667;28;20489;-68
2022/11/25 00:52:46;;;;;;;12.10;4.88;;;5.20;99.90;;;;;;5016387;28;20116;-68
2022/11/25 00:55:12;;;;;;;10.07;4.88;;;5.20;99.90;;;;;;5015152;28;20075;-68
2022/11/25 00:57:37;;;;;;;13.45;5.60;;;5.20;99.90;;;;;;5015089;28;20029;-68
2022/11/25 01:00:04;;;;;;;10.55;4.72;;;5.10;99.90;;;;;;5016346;28;20068;-68
2022/11/25 01:02:30;;;;;;;11.82;4.45;;;5.00;99.90;;;;;;5014959;28;20025;-68
2022/11/25 01:04:55;;;;;;;9.90;4.18;;;4.90;99.90;;;;;;5016251;28;20033;-68
2022/11/25 01:07:21;;;;;;;9.95;4.30;;;4.90;99.90;;;;;;5016200;28;20029;-68
2022/11/25 01:09:48;;;;;;;17.00;4.72;;;4.70;99.90;;;;;;5015131;28;20036;-68
2022/11/25 01:12:13;;;;;;;9.50;4.00;;;4.50;99.90;;;;;;5014754;28;20045;-68
2022/11/25 01:14:39;;;;;;;12.70;4.30;;;4.50;99.90;;;;;;5016304;28;20032;-68
2022/11/25 01:17:05;;;;;;;21.05;4.85;;;4.60;99.90;;;;;;5014702;28;20026;-68
2022/11/25 01:19:30;;;;;;;15.77;5.22;;;4.70;99.90;;;;;;5015879;28;20026;-68
2022/11/25 01:21:56;;;;;;;17.20;5.47;;;4.90;99.90;;;;;;5014753;28;20061;-68
2022/11/25 01:24:21;;;;;;;17.88;5.72;;;5.00;99.90;;;;;;5015881;28;20022;-68
2022/11/25 01:26:47;;;;;;;9.80;4.57;;;5.00;99.90;;;;;;5014893;28;20052;-68
2022/11/25 01:29:15;;;;;;;12.50;4.97;;;5.10;99.90;;;;;;5014944;28;20116;-68
2022/11/25 01:31:41;;;;;;;15.85;5.72;;;5.30;99.90;;;;;;5014438;28;20061;-68
2022/11/25 01:34:19;;;;;;;14.57;5.45;;;5.30;99.90;;;;;;5014519;28;20022;-68
2022/11/25 01:36:44;;;;;;;15.10;4.93;;;5.20;99.90;;;;;;5014420;28;20037;-68
2022/11/25 01:39:22;;;;;;;11.15;4.50;;;5.10;99.90;;;;;;5014354;28;20030;-68
2022/11/25 01:41:47;;;;;;;15.95;4.78;;;4.90;99.90;;;;;;5014873;28;20053;-68
2022/11/25 01:44:16;;;;;;;14.88;5.05;;;4.80;99.90;;;;;;5014241;28;20064;-68
2022/11/25 01:46:45;;;;;;;10.75;4.00;;;4.70;99.90;;;;;;5015494;28;20080;-68
2022/11/25 01:49:25;;;;;;;16.50;4.97;;;4.60;99.90;;;;;;5015472;28;20033;-68
2022/11/25 01:52:16;;;;;;;12.13;4.40;;;4.50;99.90;;;;;;5014041;28;20022;-68
2022/11/25 01:54:54;;;;;;;15.27;4.60;;;4.60;99.90;;;;;;5014067;28;20026;-68
2022/11/25 01:57:26;;;;;;;15.02;4.78;;;4.60;99.90;;;;;;5014964;28;20022;-68
2022/11/25 01:59:56;;;;;;;19.67;5.40;;;4.60;99.90;;;;;;5014254;28;20022;-68
2022/11/25 02:02:22;;;;;;;11.73;4.65;;;4.60;99.90;;;;;;5013929;28;20034;-68
2022/11/25 02:04:49;;;;;;;12.05;4.00;;;4.60;99.90;;;;;;5015051;28;20037;-68
2022/11/25 02:07:39;;;;;;;11.85;4.22;;;4.60;99.90;;;;;;5013797;28;20097;-68
2022/11/25 02:10:13;;;;;;;11.07;4.60;;;4.50;99.90;;;;;;5014539;28;20038;-68
2022/11/25 02:12:42;;;;;;;10.65;3.90;;;4.40;99.90;;;;;;5014905;28;20521;-68
2022/11/25 02:15:07;;;;;;;13.25;5.68;;;4.30;99.90;;;;;;5013559;28;20022;-68
2022/11/25 02:17:33;;;;;;;9.25;4.40;;;4.30;99.90;;;;;;5014768;28;20033;-68
2022/11/25 02:20:06;;;;;;;12.60;4.22;;;4.30;99.90;;;;;;5013596;28;20033;-68
2022/11/25 02:23:11;;;;;;;15.93;4.82;;;4.20;99.90;;;;;;5014009;28;20084;-68
2022/11/25 02:25:39;;;;;;;9.52;4.35;;;4.30;99.90;;;;;;5013018;28;20119;-68
2022/11/25 02:28:26;;;;;;;11.95;4.28;;;4.40;99.90;;;;;;5014111;28;20022;-68
2022/11/25 02:30:52;;;;;;;12.05;4.80;;;4.40;99.90;;;;;;5013480;28;20112;-68
2022/11/25 02:33:19;;;;;;;11.07;4.65;;;4.50;99.90;;;;;;5014451;28;20042;-67
2022/11/25 02:35:57;;;;;;;10.60;4.10;;;4.60;99.90;;;;;;5014626;28;20029;-67
2022/11/25 02:38:41;;;;;;;28.25;5.10;;;4.60;99.90;;;;;;5014447;28;20076;-67
2022/11/25 02:41:12;;;;;;;14.68;4.90;;;4.60;99.90;;;;;;5014449;28;20025;-67
2022/11/25 02:43:39;;;;;;;6.75;4.18;;;4.70;99.90;;;;;;5013187;28;20032;-67
2022/11/25 02:46:13;;;;;;;7.88;3.95;;;4.60;99.90;;;;;;5014384;28;20600;-67
2022/11/25 02:48:40;;;;;;;12.07;4.43;;;4.50;99.90;;;;;;5014345;28;20026;-67
2022/11/25 02:51:08;;;;;;;15.02;4.78;;;4.40;99.90;;;;;;5013121;28;20096;-67
2022/11/25 02:53:34;;;;;;;17.63;5.03;;;4.50;99.90;;;;;;5014214;28;20018;-67
2022/11/25 02:56:00;;;;;;;16.80;4.55;;;4.60;99.90;;;;;;5013009;28;20084;-67
2022/11/25 02:58:26;;;;;;;16.60;4.63;;;4.50;99.90;;;;;;5013209;28;20050;-67
2022/11/25 03:00:51;;;;;;;13.68;4.97;;;4.40;99.90;;;;;;5014125;28;20065;-67
2022/11/25 03:03:17;;;;;;;13.88;4.88;;;4.30;99.90;;;;;;5014115;28;20065;-67
2022/11/25 03:05:43;;;;;;;9.32;5.28;;;4.10;99.90;;;;;;5012848;28;20026;-67
2022/11/25 03:08:08;;;;;;;12.63;4.53;;;4.10;99.90;;;;;;5014036;28;20026;-67
2022/11/25 03:10:35;;;;;;;11.43;4.43;;;4.10;99.90;;;;;;5013036;28;20025;-67
2022/11/25 03:13:01;;;;;;;12.02;4.43;;;4.10;99.90;;;;;;5014245;28;20040;-67
2022/11/25 03:15:26;;;;;;;13.60;5.25;;;4.10;99.90;;;;;;5013951;28;20088;-67
2022/11/25 03:17:52;;;;;;;8.23;4.63;;;4.10;99.90;;;;;;5013420;28;20416;-67
2022/11/25 03:20:19;;;;;;;13.18;4.68;;;4.20;99.90;;;;;;5013765;28;20056;-67
2022/11/25 03:22:44;;;;;;;8.35;4.20;;;4.20;99.90;;;;;;5014084;28;20034;-67
2022/11/25 03:25:11;;;;;;;11.35;4.80;;;4.10;99.90;;;;;;5012788;28;20168;-67
2022/11/25 03:27:38;;;;;;;10.43;4.15;;;4.10;99.90;;;;;;5012445;28;20030;-67
2022/11/25 03:30:06;;;;;;;19.05;5.88;;;4.30;99.90;;;;;;5012460;28;20061;-67
2022/11/25 03:32:32;;;;;;;12.45;4.72;;;4.20;99.90;;;;;;5013627;28;20033;-67
2022/11/25 03:34:58;;;;;;;18.52;4.53;;;4.30;99.90;;;;;;5012274;28;20022;-67
2022/11/25 03:37:23;;;;;;;11.32;4.78;;;4.40;99.90;;;;;;5012656;28;20057;-68
2022/11/25 03:39:49;;;;;;;17.50;5.60;;;4.60;99.90;;;;;;5012175;28;20108;-68
2022/11/25 03:42:14;;;;;;;16.58;5.28;;;4.60;99.90;;;;;;5012553;28;20116;-68
2022/11/25 03:44:40;;;;;;;14.82;6.32;;;4.70;99.90;;;;;;5013597;28;20038;-68
2022/11/25 03:47:05;;;;;;;19.05;5.63;;;4.90;99.90;;;;;;5012135;28;20036;-68
2022/11/25 03:49:31;;;;;;;16.83;5.32;;;5.20;99.90;;;;;;5012657;28;20048;-68
2022/11/25 03:51:57;;;;;;;11.00;4.85;;;5.30;99.90;;;;;;5013332;28;20384;-68
2022/11/25 03:54:22;;;;;;;17.90;5.60;;;5.40;99.90;;;;;;5012176;28;20028;-68
2022/11/25 03:56:48;;;;;;;13.07;5.10;;;5.20;99.90;;;;;;5013338;28;20362;-68
2022/11/25 03:59:14;;;;;;;14.20;4.70;;;5.00;99.90;;;;;;5012908;28;20037;-68
2022/11/25 04:01:39;;;;;;;14.88;5.30;;;5.00;99.90;;;;;;5012326;28;20022;-68
2022/11/25 04:04:05;;;;;;;12.88;4.80;;;5.20;99.90;;;;;;5012402;28;20505;-68
2022/11/25 04:06:31;;;;;;;13.45;4.80;;;5.30;99.90;;;;;;5013290;28;20413;-68
2022/11/25 04:08:57;;;;;;;10.73;4.78;;;5.20;99.90;;;;;;5013548;28;20014;-68
2022/11/25 04:12:45;;;;;;;9.23;4.72;;;5.20;99.90;;;;;;5011893;28;20025;-68
2022/11/25 04:14:11;;;;;;;10.60;4.38;;;5.30;99.90;;;;;;5013042;28;20045;-68
2022/11/25 04:16:37;;;;;;;11.25;4.40;;;5.10;99.90;;;;;;5011921;28;20022;-68
2022/11/25 04:19:02;;;;;;;11.02;5.10;;;5.00;99.90;;;;;;5013439;28;20022;-68
2022/11/25 04:21:28;;;;;;;11.80;3.90;;;4.90;99.90;;;;;;5014259;28;20025;-67
2022/11/25 04:23:54;;;;;;;12.90;5.47;;;4.90;99.90;;;;;;5015837;28;20021;-67
2022/11/25 04:26:19;;;;;;;13.27;5.38;;;4.90;99.90;;;;;;5017338;28;20050;-67
2022/11/25 04:28:45;;;;;;;21.45;5.57;;;5.10;99.90;;;;;;5015635;28;20148;-67
2022/11/25 04:31:10;;;;;;;14.63;5.55;;;5.30;99.90;;;;;;5016772;28;20045;-67
2022/11/25 04:33:36;;;;;;;14.93;5.65;;;5.20;99.90;;;;;;5016888;28;20082;-67
2022/11/25 04:36:02;;;;;;;13.98;5.38;;;5.20;99.90;;;;;;5017072;28;20032;-67
2022/11/25 04:38:27;;;;;;;11.35;5.05;;;5.20;99.90;;;;;;5016821;28;20018;-68
2022/11/25 04:40:53;;;;;;;18.52;5.88;;;5.20;99.90;;;;;;5015673;28;20433;-68
2022/11/25 04:43:19;;;;;;;15.93;5.40;;;5.20;99.90;;;;;;5015447;28;20034;-68
2022/11/25 04:45:47;;;;;;;16.02;5.35;;;5.10;99.90;;;;;;5016706;28;20053;-68
2022/11/25 04:48:12;;;;;;;10.88;5.60;;;5.10;99.90;;;;;;5015377;28;20026;-68
2022/11/25 04:50:38;;;;;;;18.30;5.55;;;5.10;99.90;;;;;;5016778;28;20079;-68
2022/11/25 04:53:03;;;;;;;14.15;5.25;;;5.20;99.90;;;;;;5016231;28;20021;-68
2022/11/25 04:55:29;;;;;;;16.90;5.32;;;5.30;99.90;;;;;;5016127;28;20034;-68
2022/11/25 04:57:55;;;;;;;13.50;4.85;;;5.40;99.90;;;;;;5016502;28;20018;-68
2022/11/25 05:00:21;;;;;;;23.52;5.22;;;5.50;99.90;;;;;;5015319;28;20100;-68
2022/11/25 05:02:47;;;;;;;15.00;5.78;;;5.60;99.90;;;;;;5016602;28;20030;-68
2022/11/25 05:05:12;;;;;;;8.48;5.10;;;5.70;99.90;;;;;;5015088;28;20033;-68
2022/11/25 05:07:38;;;;;;;14.18;4.63;;;5.80;99.90;;;;;;5015047;28;20026;-68
2022/11/25 05:10:04;;;;;;;13.10;6.05;;;5.70;99.90;;;;;;5014903;28;20026;-68
2022/11/25 05:12:30;;;;;;;18.52;5.35;;;5.70;99.90;;;;;;5016008;28;20061;-68
2022/11/25 05:14:56;;;;;;;12.32;5.68;;;5.80;99.90;;;;;;5016091;28;20057;-68
2022/11/25 05:17:24;;;;;;;19.98;5.30;;;5.80;99.90;;;;;;5015609;28;20018;-68
2022/11/25 05:19:50;;;;;;;14.13;5.68;;;5.90;99.90;;;;;;5016159;28;20471;-68
2022/11/25 05:22:24;;;;;;;19.08;5.45;;;6.00;99.90;;;;;;5014702;28;20108;-68
2022/11/25 05:24:50;;;;;;;17.80;5.45;;;6.00;99.90;;;;;;5015947;28;20022;-68
2022/11/25 05:27:16;;;;;;;18.92;5.90;;;5.90;99.90;;;;;;5015790;28;20084;-68
2022/11/25 05:29:45;;;;;;;13.35;5.38;;;5.90;99.90;;;;;;5015344;28;20037;-68
2022/11/25 05:32:11;;;;;;;23.40;5.63;;;6.00;99.90;;;;;;5015091;28;20021;-69
2022/11/25 05:34:38;;;;;;;19.75;6.13;;;6.10;99.90;;;;;;5014410;28;20025;-70
2022/11/25 05:37:04;;;;;;;16.95;6.20;;;6.10;99.90;;;;;;5015743;28;20026;-69
2022/11/25 05:39:30;;;;;;;15.52;5.80;;;6.10;99.90;;;;;;5015068;28;20109;-69
2022/11/25 05:41:55;;;;;;;20.73;5.70;;;6.10;99.90;;;;;;5015830;28;20113;-69
2022/11/25 05:44:21;;;;;;;20.95;6.88;;;6.10;99.90;;;;;;5014264;28;20025;-69
2022/11/25 05:46:47;;;;;;;19.25;5.82;;;6.10;99.90;;;;;;5014197;28;20030;-69
2022/11/25 05:49:14;;;;;;;23.40;6.03;;;6.20;99.90;;;;;;5014527;28;20113;-69
2022/11/25 05:51:39;;;;;;;23.77;6.03;;;6.20;99.90;;;;;;5014049;28;20032;-69
2022/11/25 05:54:05;;;;;;;11.75;5.00;;;6.20;99.90;;;;;;5014146;28;20022;-69
2022/11/25 05:56:31;;;;;;;15.30;5.75;;;6.20;99.90;;;;;;5014361;28;20022;-69
2022/11/25 05:59:01;;;;;;;20.65;6.05;;;6.10;99.90;;;;;;5013885;28;20025;-68
2022/11/25 06:01:26;;;;;;;17.08;6.63;;;6.10;99.90;;;;;;5015224;28;20157;-68
2022/11/25 06:03:52;;;;;;;21.50;6.68;;;6.00;99.90;;;;;;5014812;28;20169;-68
2022/11/25 06:06:18;;;;;;;25.20;5.53;;;6.00;99.90;;;;;;5013836;28;20026;-68
2022/11/25 06:08:44;;;;;;;19.02;5.03;;;6.00;99.90;;;;;;5015098;28;20031;-68
2022/11/25 06:11:15;;;;;;;18.00;5.68;;;6.10;99.90;;;;;;5013687;28;20032;-68
2022/11/25 06:13:42;;;;;;;16.02;5.60;;;6.10;99.90;;;;;;5013722;28;20037;-68
2022/11/25 06:16:11;;;;;;;14.88;5.38;;;6.20;99.90;;;;;;5015212;28;20029;-68
2022/11/25 06:18:37;;;;;;;16.90;5.32;;;6.30;99.90;;;;;;5013645;28;20037;-68
2022/11/25 06:21:04;;;;;;;16.52;4.57;;;6.40;99.90;;;;;;5014845;28;20377;-68
2022/11/25 06:23:30;;;;;;;16.42;4.70;;;6.60;99.90;;;;;;5013622;28;20034;-68
2022/11/25 06:26:03;;;;;;;14.10;5.47;;;6.80;99.90;;;;;;5014773;28;20133;-68
2022/11/25 06:28:28;;;;;;;14.80;5.30;;;6.80;99.90;;;;;;5013495;28;20032;-68
2022/11/25 06:30:54;;;;;;;18.02;4.60;;;7.00;99.90;;;;;;5013162;28;20042;-68
2022/11/25 06:33:19;;;;;;;17.23;5.45;;;7.10;99.90;;;;;;5014651;28;20022;-68
2022/11/25 06:35:45;;;;;;;21.42;5.10;;;7.20;99.90;;;;;;5013376;28;20049;-68
2022/11/25 06:38:10;;;;;;;15.15;5.63;;;7.20;99.90;;;;;;5014685;28;20022;-68
2022/11/25 06:40:36;;;;;;;11.75;4.57;;;7.10;99.90;;;;;;5014428;28;20030;-68
2022/11/25 06:43:03;;;;;;;13.80;5.40;;;7.20;99.90;;;;;;5013261;28;20026;-68
2022/11/25 06:45:29;;;;;;;17.38;5.85;;;7.10;99.90;;;;;;5014590;28;20022;-68
2022/11/25 06:47:54;;;;;;;14.40;5.60;;;7.00;99.90;;;;;;5014408;28;20037;-68
2022/11/25 06:50:20;;;;;;;15.65;5.82;;;7.10;99.90;;;;;;5013110;28;20028;-68
2022/11/25 06:52:45;;;;;;;14.50;5.05;;;7.00;99.90;;;;;;5014240;28;20026;-68
2022/11/25 06:55:11;;;;;;;18.65;6.28;;;6.90;99.90;;;;;;5014216;28;20028;-68
2022/11/25 06:57:37;;;;;;;18.35;5.25;;;6.90;99.90;;;;;;5014082;28;20018;-68
2022/11/25 07:00:03;;;;;;;18.70;6.25;;;6.90;99.90;;;;;;5014358;28;20025;-68
2022/11/25 07:02:29;;;;;;;16.42;5.10;;;7.00;99.90;;;;;;5014569;28;20030;-68
2022/11/25 07:04:54;;;;;;;15.13;4.63;;;7.30;99.90;;;;;;5012805;28;20026;-68
2022/11/25 07:07:20;;;;;;;20.38;5.53;;;7.30;99.90;;;;;;5013719;28;20033;-68
2022/11/25 07:09:46;;;;;;;9.10;4.25;;;7.20;99.90;;;;;;5012537;28;20060;-68
2022/11/25 07:12:12;;;;;;;17.13;5.15;;;7.30;99.90;;;;;;5013654;28;20038;-68
2022/11/25 07:14:37;;;;;;;17.60;5.90;;;7.30;99.90;;;;;;5012741;28;20018;-68
2022/11/25 07:17:03;;;;;;;13.07;4.80;;;7.30;99.90;;;;;;5013494;28;20061;-68
2022/11/25 07:19:32;;;;;;;12.25;5.45;;;7.20;99.90;;;;;;5012508;28;20026;-68
2022/11/25 07:21:58;;;;;;;17.02;4.88;;;7.10;99.90;;;;;;5013377;28;20030;-68
2022/11/25 07:24:23;;;;;;;15.40;5.25;;;7.10;99.90;;;;;;5012622;28;20022;-68
2022/11/25 07:26:49;;;;;;;13.60;4.95;;;7.00;99.90;;;;;;5013956;28;20018;-68
2022/11/25 07:29:15;;;;;;;9.75;3.88;;;7.00;99.90;;;;;;5013675;28;20022;-68
2022/11/25 07:31:43;;;;;;;13.45;3.38;;;7.00;99.90;;;;;;5013414;28;20041;-68
2022/11/25 07:34:09;;;;;;;12.45;4.18;;;7.10;99.90;;;;;;5013617;28;20030;-68
2022/11/25 07:36:35;;;;;;;14.77;4.20;;;7.20;99.90;;;;;;5013555;28;20025;-68
2022/11/25 07:39:04;;;;;;;13.35;4.20;;;7.30;99.90;;;;;;5012263;28;20056;-68
2022/11/25 07:41:30;;;;;;;10.48;4.00;;;7.40;99.90;;;;;;5012733;28;20026;-68
2022/11/25 07:43:58;;;;;;;17.60;3.85;;;7.50;99.90;;;;;;5013529;28;20080;-68
2022/11/25 07:46:31;;;;;;;13.52;4.07;;;7.30;99.90;;;;;;5012166;28;20033;-68
2022/11/25 07:48:59;;;;;;;14.45;3.85;;;7.20;99.90;;;;;;5013955;28;20050;-68
2022/11/25 07:51:32;;;;;;;12.73;4.03;;;7.20;99.90;;;;;;5013350;28;20405;-68
2022/11/25 07:53:59;;;;;;;17.52;4.78;;;7.30;99.90;;;;;;5013287;28;20025;-68
2022/11/25 07:56:26;;;;;;;17.55;4.15;;;7.40;99.90;;;;;;5012488;28;20088;-68
2022/11/25 07:58:52;;;;;;;12.20;4.78;;;7.30;99.90;;;;;;5013357;28;20022;-68
2022/11/25 08:01:18;;;;;;;8.75;3.70;;;7.30;99.90;;;;;;5013464;28;20109;-68
2022/11/25 08:03:45;;;;;;;18.75;3.78;;;7.30;99.90;;;;;;5012310;28;20116;-68
2022/11/25 08:06:14;;;;;;;10.82;4.15;;;7.30;99.90;;;;;;5012064;28;20026;-68
2022/11/25 08:08:41;;;;;;;11.60;4.03;;;7.40;99.90;;;;;;5013252;28;20022;-68
2022/11/25 08:11:09;;;;;;;7.55;3.20;;;7.50;99.90;;;;;;5013182;28;20116;-67
2022/11/25 08:13:35;;;;;;;11.77;4.03;;;7.40;99.90;;;;;;5011936;28;20030;-68
2022/11/25 08:16:01;;;;;;;15.38;4.85;;;7.50;99.90;;;;;;5012516;28;20019;-68
2022/11/25 08:18:27;;;;;;;19.08;4.15;;;7.60;99.90;;;;;;5012237;28;20026;-68
2022/11/25 08:21:03;;;;;;;9.85;4.07;;;7.60;99.90;;;;;;5012845;28;20025;-67
2022/11/25 08:23:29;;;;;;;12.95;4.35;;;7.70;99.90;;;;;;5012028;28;20081;-67
2022/11/25 08:25:55;;;;;;;9.43;3.80;;;7.60;99.90;;;;;;5013284;28;20056;-67
2022/11/25 08:28:20;;;;;;;17.05;4.32;;;7.60;99.90;;;;;;5012019;28;20026;-67
2022/11/25 08:30:46;;;;;;;16.58;4.63;;;7.70;99.90;;;;;;5013114;28;20042;-67
2022/11/25 08:33:12;;;;;;;13.40;5.13;;;7.80;99.90;;;;;;5011845;28;20026;-67
2022/11/25 08:35:37;;;;;;;14.68;4.88;;;7.80;99.90;;;;;;5013361;28;20030;-67
2022/11/25 08:38:05;;;;;;;15.40;4.13;;;7.90;99.90;;;;;;5011830;28;20022;-68
2022/11/25 08:40:33;;;;;;;14.60;4.55;;;7.90;99.90;;;;;;5012647;28;20048;-67
2022/11/25 08:42:59;;;;;;;11.77;4.38;;;7.90;99.90;;;;;;5011678;28;20022;-67
2022/11/25 08:45:24;;;;;;;12.43;4.63;;;7.70;99.90;;;;;;5012009;28;20029;-67
2022/11/25 08:47:50;;;;;;;13.05;5.55;;;7.60;99.90;;;;;;5012035;28;20026;-67
2022/11/25 08:50:16;;;;;;;18.20;5.88;;;7.70;99.90;;;;;;5012907;28;20034;-67
2022/11/25 08:52:41;;;;;;;17.20;4.78;;;7.70;99.90;;;;;;5011665;28;20030;-68
2022/11/25 08:55:07;;;;;;;19.08;5.57;;;7.80;99.90;;;;;;5013152;28;20021;-68
2022/11/25 08:57:33;;;;;;;18.88;5.07;;;7.60;99.90;;;;;;5013083;28;20093;-68
2022/11/25 08:59:59;;;;;;;18.08;5.20;;;7.80;99.90;;;;;;5011631;28;20116;-68
2022/11/25 09:02:25;;;;;;;16.38;4.95;;;7.80;99.90;;;;;;5012952;28;20123;-68
2022/11/25 09:04:50;;;;;;;13.70;5.30;;;7.70;99.90;;;;;;5012839;28;20026;-68
2022/11/25 09:07:16;;;;;;;16.40;5.43;;;7.80;99.90;;;;;;5013104;28;20109;-68
2022/11/25 09:09:42;;;;;;;14.32;6.10;;;7.80;99.90;;;;;;5015668;28;20022;-68
2022/11/25 09:12:07;;;;;;;15.45;5.00;;;7.80;99.90;;;;;;5015026;28;20030;-68
2022/11/25 09:14:33;;;;;;;13.13;5.90;;;7.90;99.90;;;;;;5017160;28;20018;-68
2022/11/25 09:17:00;;;;;;;15.75;5.35;;;7.80;99.90;;;;;;5021136;28;20014;-68
2022/11/25 09:19:26;;;;;;;17.33;5.18;;;7.80;99.90;;;;;;5016092;28;20105;-68
2022/11/25 09:21:53;;;;;;;15.65;6.38;;;7.70;99.90;;;;;;5016113;28;20058;-68
2022/11/25 09:24:18;;;;;;;24.42;6.15;;;7.60;99.90;;;;;;5016835;28;20018;-68
2022/11/25 09:26:44;;;;;;;14.25;5.10;;;7.50;99.90;;;;;;5016421;28;20029;-68
2022/11/25 09:29:12;;;;;;;14.68;4.93;;;7.60;99.90;;;;;;5016021;28;20018;-67
2022/11/25 09:31:38;;;;;;;14.18;6.10;;;7.60;99.90;;;;;;5016894;28;20037;-67
2022/11/25 09:34:04;;;;;;;17.83;6.25;;;7.70;99.90;;;;;;5015725;28;20026;-67
2022/11/25 09:36:29;;;;;;;16.55;7.32;;;7.80;99.90;;;;;;5016078;28;20088;-67
2022/11/25 09:38:55;;;;;;;16.40;5.38;;;7.80;99.90;;;;;;5014424;28;20117;-68
2022/11/25 09:48:02;;;;;;;17.75;6.05;;;7.80;99.90;;;;;;5016029;28;20056;-68
2022/11/25 09:50:41;;;;;;;16.65;6.03;;;7.60;99.90;;;;;;5015380;28;20026;-68
2022/11/25 09:53:21;;;;;;;17.33;5.85;;;7.60;99.90;;;;;;5015365;28;20038;-68
2022/11/25 09:55:50;;;;;;;13.75;4.93;;;7.60;99.90;;;;;;5014232;28;20466;-68
2022/11/25 09:58:24;;;;;;;14.93;5.05;;;7.80;99.90;;;;;;5015416;28;20022;-68
2022/11/25 10:00:51;;;;;;;15.02;5.28;;;7.90;99.90;;;;;;5014719;28;20029;-68
2022/11/25 10:03:57;;;;;;;11.00;4.90;;;8.00;99.90;;;;;;5015231;28;20032;-68
2022/11/25 10:06:29;;;;;;;15.45;6.53;;;8.10;99.90;;;;;;5013375;28;20042;-68
2022/11/25 10:09:03;;;;;;;16.60;5.45;;;8.10;99.90;;;;;;5015155;28;20393;-68
2022/11/25 10:11:53;;;;;;;16.63;5.32;;;8.10;99.90;;;;;;5014998;28;20076;-68
2022/11/25 10:14:46;;;;;;;15.40;6.03;;;8.10;99.90;;;;;;5014610;28;20030;-68
2022/11/25 10:17:42;;;;;;;14.10;5.47;;;8.00;99.90;;;;;;5014490;28;20026;-68
2022/11/25 10:20:16;;;;;;;12.52;5.70;;;8.10;99.90;;;;;;5014502;28;20029;-68
2022/11/25 10:22:48;;;;;;;19.05;6.85;;;8.00;99.90;;;;;;5015822;28;20064;-68
2022/11/25 10:25:27;;;;;;;15.05;5.82;;;7.90;99.90;;;;;;5013942;28;20034;-68
2022/11/25 10:28:24;;;;;;;21.65;7.22;;;7.90;99.90;;;;;;5013592;28;20034;-68
2022/11/25 10:31:11;;;;;;;14.18;6.63;;;7.90;99.90;;;;;;5000457;28;20049;-68
2022/11/25 10:33:43;;;;;;;18.10;5.88;;;7.80;99.90;;;;;;5014891;28;20108;-68
2022/11/25 10:36:18;;;;;;;19.92;7.13;;;7.80;99.90;;;;;;5014224;28;20026;-68
2022/11/25 10:39:09;;;;;;;19.30;7.03;;;7.80;99.90;;;;;;5013694;28;20470;-68
2022/11/25 10:41:43;;;;;;;18.85;6.90;;;7.70;99.90;;;;;;5014508;28;20160;-68
2022/11/25 10:44:23;;;;;;;16.90;6.82;;;7.80;99.90;;;;;;5013340;28;20076;-68
2022/11/25 10:47:06;;;;;;;24.00;8.25;;;7.80;99.90;;;;;;5014772;28;20022;-68
2022/11/25 10:50:02;;;;;;;22.42;8.32;;;7.80;99.90;;;;;;5014121;28;20026;-68
2022/11/25 10:52:31;;;;;;;18.35;7.45;;;7.70;99.90;;;;;;5013745;28;20098;-68
2022/11/25 10:55:14;;;;;;;21.85;8.48;;;7.80;99.90;;;;;;5013142;28;20052;-68
2022/11/25 10:57:40;;;;;;;23.52;7.47;;;7.80;99.90;;;;;;5013054;28;20056;-68
2022/11/25 11:00:24;;;;;;;21.98;7.53;;;7.80;99.90;;;;;;5014087;28;20058;-68
2022/11/25 11:02:50;;;;;;;21.65;6.90;;;8.00;99.90;;;;;;5014263;28;20030;-68
2022/11/25 11:05:22;;;;;;;18.77;5.95;;;8.00;99.90;;;;;;5012954;28;20060;-68
2022/11/25 11:08:15;;;;;;;15.18;7.10;;;8.20;99.90;;;;;;5014353;28;20029;-68
2022/11/25 11:10:42;;;;;;;21.63;7.68;;;8.30;99.90;;;;;;5014171;28;20029;-68
2022/11/25 11:13:24;;;;;;;25.58;7.97;;;8.30;99.90;;;;;;5014010;28;20080;-68
2022/11/25 11:15:51;;;;;;;21.38;7.15;;;8.30;99.90;;;;;;5013296;28;20030;-68
2022/11/25 11:18:39;;;;;;;16.20;7.00;;;8.40;99.90;;;;;;5012657;28;20036;-68
2022/11/25 11:21:20;;;;;;;22.60;7.25;;;8.40;99.90;;;;;;5012929;28;20600;-68
2022/11/25 11:23:51;;;;;;;18.60;7.20;;;8.40;99.90;;;;;;5013005;28;20037;-68
2022/11/25 11:26:32;;;;;;;13.77;6.07;;;8.40;99.90;;;;;;5012994;28;20034;-68
2022/11/25 11:29:04;;;;;;;12.40;5.68;;;8.30;99.90;;;;;;5014258;28;20033;-68
2022/11/25 11:31:34;;;;;;;16.50;6.28;;;8.30;99.90;;;;;;5013644;28;20130;-68
2022/11/25 11:34:35;;;;;;;19.95;7.00;;;8.30;99.90;;;;;;5012315;28;20112;-67
2022/11/25 11:37:19;;;;;;;13.50;5.60;;;8.20;99.90;;;;;;5013959;28;20500;-68
2022/11/25 11:39:59;;;;;;;18.63;6.65;;;8.40;99.90;;;;;;5012492;28;20022;-68
2022/11/25 11:42:46;;;;;;;19.95;6.93;;;8.40;99.90;;;;;;5013721;28;20045;-68
2022/11/25 11:45:35;;;;;;;21.92;7.68;;;8.40;99.90;;;;;;5012267;28;20080;-68
2022/11/25 11:48:11;;;;;;;16.33;6.72;;;8.40;99.90;;;;;;4999584;28;20029;-68
2022/11/25 11:51:02;;;;;;;16.35;6.60;;;8.60;99.90;;;;;;5013655;28;20022;-68
2022/11/25 11:53:46;;;;;;;15.10;5.75;;;8.60;99.90;;;;;;5012997;28;20096;-68
2022/11/25 11:56:27;;;;;;;14.15;6.35;;;8.60;99.90;;;;;;5012134;28;20107;-68
2022/11/25 11:59:11;;;;;;;14.50;6.07;;;8.60;99.90;;;;;;5012958;28;20022;-68
2022/11/25 12:02:00;;;;;;;20.50;6.57;;;8.60;99.90;;;;;;5012153;28;20036;-68
2022/11/25 12:04:34;;;;;;;20.52;6.72;;;8.60;99.90;;;;;;5012210;28;20025;-68
2022/11/25 12:07:09;;;;;;;11.45;6.15;;;8.60;99.90;;;;;;5013003;28;20022;-68
2022/11/25 12:09:45;;;;;;;17.02;5.28;;;8.60;99.90;;;;;;5012857;28;20020;-68
2022/11/25 12:12:15;;;;;;;14.70;7.15;;;8.60;99.90;;;;;;5013371;28;20018;-68
2022/11/25 12:14:59;;;;;;;11.63;4.85;;;8.70;99.90;;;;;;5012101;28;20029;-69
2022/11/25 12:17:44;;;;;;;13.80;4.82;;;9.00;99.90;;;;;;5013517;28;20069;-68
2022/11/25 12:20:15;;;;;;;10.48;5.18;;;9.10;99.90;;;;;;5013453;28;20113;-68
2022/11/25 12:22:54;;;;;;;14.38;5.38;;;9.30;99.90;;;;;;5012086;28;20030;-68
2022/11/25 12:25:29;;;;;;;13.02;5.32;;;9.40;99.90;;;;;;5012193;28;20172;-68
2022/11/25 12:27:57;;;;;;;11.20;5.03;;;9.40;99.90;;;;;;5013491;28;20029;-68
2022/11/25 12:30:24;;;;;;;9.38;4.05;;;9.60;99.90;;;;;;5011845;28;20551;-68
2022/11/25 12:33:11;;;;;;;12.40;5.07;;;9.90;99.90;;;;;;5013232;28;20029;-68
2022/11/25 12:36:10;;;;;;;11.65;4.93;;;10.00;99.90;;;;;;5012672;28;20025;-68
2022/11/25 12:38:55;;;;;;;10.98;4.57;;;10.00;99.90;;;;;;5012092;28;20101;-68
2022/11/25 12:41:40;;;;;;;10.70;4.65;;;10.00;99.90;;;;;;5012025;28;20024;-68
2022/11/25 12:44:30;;;;;;;12.48;5.13;;;9.80;99.90;;;;;;5016936;28;20129;-68
2022/11/25 12:46:56;;;;;;;10.95;5.57;;;9.80;99.90;;;;;;5016977;28;20025;-68
2022/11/25 12:49:33;;;;;;;18.88;5.68;;;9.90;99.90;;;;;;5015579;28;20032;-68
2022/11/25 12:52:24;;;;;;;10.93;4.95;;;9.80;99.90;;;;;;5016662;28;20030;-68
2022/11/25 12:55:24;;;;;;;11.00;4.88;;;9.90;99.90;;;;;;5015443;28;20037;-68
2022/11/25 12:58:00;;;;;;;15.93;5.53;;;10.10;99.90;;;;;;5014679;28;20500;-68
2022/11/25 13:01:02;;;;;;;14.48;6.20;;;10.10;99.90;;;;;;5016801;28;20112;-68
2022/11/25 13:04:10;;;;;;;16.33;5.63;;;10.20;99.90;;;;;;5015300;28;20025;-68
2022/11/25 13:07:11;;;;;;;14.52;5.15;;;10.10;99.90;;;;;;5016736;28;20033;-68
2022/11/25 13:10:01;;;;;;;16.42;5.15;;;10.00;99.90;;;;;;5016303;28;20040;-68
2022/11/25 13:12:27;;;;;;;14.30;5.47;;;10.00;99.90;;;;;;5015177;28;20034;-68
2022/11/25 13:15:07;;;;;;;13.93;4.78;;;10.00;99.90;;;;;;5016349;28;20128;-68